world map with CKT marked

CKT - Airport

This information may not be accurate or current and is not valid for navigation or flight planning. No warranty of fitness for any purpose is made or implied.

flag of Iran

Donate via PayPal

Additional information is available on the NEW Great Circle Mapper

Location
City:  Sarakhs, Khorasan-e Razavi, Iran
ICAO / IATA:OIMC / CKT

Details
Type:Airport (Aerodrome, Airfield)
Latitude:36°30'04"N (36.501178)
Longitude:61°03'54"E (61.064903)
Datum:WGS 1984
Elevation:945 ft (288 m)
Runways:1
Longest:13076 × 148 ft (3986 × 45 m)

Time
Timezone:UTC+3:30 (DST+6:30)
Local Time:

Weather
METAR:OIMC  041400Z 36016KT 2000 SN BKN025 OVC070 00/M00 Q1025

Related Locations
Nearby:
Farthest:IPC: 11585 mi / 18644 km
Easter Island (Isla de Pascua, Rapa Nui) [Mataveri Intl], VS, CL

Find:

   beyond  
but within

Other Information
Maps:
Sources:

  


 


Great Circle Mapper   Great Circle Mapper
Great Circle Mapper FAQ   Great Circle Mapper FAQ
  Karl's Home Page
KLSē   KLSē Home
   GC on Facebook
Airlines of the World   Airlines of the World
Donate via PayPal


Copyright © 2004-2019, Karl L. Swartz. All rights reserved.
All trademarks mentioned herein belong to their respective owners.

Please see credits for attribution and copyright information.

Karl Swartz <karl@kls2.com>
  Powered by FreeBSD
Valid HTML 4.01!
Labeled with ICRA
hCard Microformat
Geo Microformat